createdAt,value
2023-02-13T00:00:41.021Z,1030.09
2023-02-13T00:01:41.030Z,1030.10
2023-02-13T00:02:47.668Z,1030.04
2023-02-13T00:03:41.069Z,1030.11
2023-02-13T00:04:40.968Z,1030.10
2023-02-13T00:05:40.982Z,1030.08
2023-02-13T00:06:40.951Z,1030.14
2023-02-13T00:07:40.978Z,1030.13
2023-02-13T00:08:40.949Z,1030.08
2023-02-13T00:09:40.961Z,1030.10
2023-02-13T00:10:40.910Z,1030.04
2023-02-13T00:11:40.921Z,1030.08
2023-02-13T00:12:40.940Z,1030.06
2023-02-13T00:13:40.932Z,1030.07
2023-02-13T00:14:40.880Z,1030.09
2023-02-13T00:15:40.872Z,1030.03
2023-02-13T00:16:40.848Z,1029.98
2023-02-13T00:17:40.860Z,1030.05
2023-02-13T00:18:40.853Z,1030.05
2023-02-13T00:19:40.866Z,1030.00
2023-02-13T00:20:40.828Z,1030.01
2023-02-13T00:21:40.857Z,1029.96
2023-02-13T00:22:47.329Z,1029.98
2023-02-13T00:23:40.778Z,1030.02
2023-02-13T00:24:40.785Z,1029.97
2023-02-13T00:25:40.770Z,1029.95
2023-02-13T00:26:40.750Z,1030.00
2023-02-13T00:27:40.742Z,1030.00
2023-02-13T00:28:40.878Z,1030.03
2023-02-13T00:29:40.698Z,1030.04
2023-02-13T00:30:40.685Z,1030.02
2023-02-13T00:31:40.841Z,1030.01
2023-02-13T00:32:40.657Z,1029.98
2023-02-13T00:33:40.694Z,1029.97
2023-02-13T00:34:40.659Z,1030.05
2023-02-13T00:35:40.657Z,1029.96
2023-02-13T00:36:40.672Z,1030.01
2023-02-13T00:37:40.629Z,1030.04
2023-02-13T00:38:40.611Z,1030.06
2023-02-13T00:39:40.614Z,1030.04
2023-02-13T00:40:40.586Z,1030.03
2023-02-13T00:41:40.568Z,1030.04
2023-02-13T00:42:40.539Z,1030.01
2023-02-13T00:43:40.616Z,1030.02
2023-02-13T00:44:40.519Z,1029.99
2023-02-13T00:45:40.547Z,1029.99
2023-02-13T00:46:40.550Z,1029.98
2023-02-13T00:47:40.518Z,1029.90
2023-02-13T00:48:40.495Z,1029.97
2023-02-13T00:49:40.493Z,1030.00
2023-02-13T00:50:40.499Z,1029.97
2023-02-13T00:51:40.477Z,1029.92
2023-02-13T00:52:47.490Z,1029.92
2023-02-13T00:53:40.437Z,1029.91
2023-02-13T00:54:40.453Z,1029.94
2023-02-13T00:55:40.465Z,1029.95
2023-02-13T00:56:40.404Z,1029.88
2023-02-13T00:57:40.388Z,1029.97
2023-02-13T00:58:40.396Z,1029.91
2023-02-13T00:59:40.373Z,1029.89
2023-02-13T01:00:40.346Z,1029.87
2023-02-13T01:01:40.398Z,1029.84
2023-02-13T01:02:40.343Z,1029.86
2023-02-13T01:03:40.387Z,1029.81
2023-02-13T01:04:40.314Z,1029.81
2023-02-13T01:05:40.316Z,1029.81
2023-02-13T01:06:40.300Z,1029.74
2023-02-13T01:07:40.306Z,1029.76
2023-02-13T01:08:40.290Z,1029.77
2023-02-13T01:09:40.281Z,1029.75
2023-02-13T01:10:40.249Z,1029.79
2023-02-13T01:11:40.241Z,1029.76
2023-02-13T01:12:40.232Z,1029.77
2023-02-13T01:13:40.249Z,1029.80
2023-02-13T01:14:40.287Z,1029.74
2023-02-13T01:15:40.228Z,1029.77
2023-02-13T01:16:40.201Z,1029.72
2023-02-13T01:17:40.175Z,1029.76
2023-02-13T01:18:40.163Z,1029.72
2023-02-13T01:19:40.166Z,1029.68
2023-02-13T01:20:40.152Z,1029.66
2023-02-13T01:21:40.170Z,1029.67
2023-02-13T01:22:40.113Z,1029.69
2023-02-13T01:23:40.098Z,1029.69
2023-02-13T01:24:40.111Z,1029.65
2023-02-13T01:25:40.091Z,1029.59
2023-02-13T01:26:40.094Z,1029.65
2023-02-13T01:27:40.074Z,1029.62
2023-02-13T01:28:40.148Z,1029.62
2023-02-13T01:29:40.052Z,1029.57
2023-02-13T01:30:40.133Z,1029.63
2023-02-13T01:31:40.141Z,1029.66
2023-02-13T01:32:40.031Z,1029.66
2023-02-13T01:33:39.982Z,1029.67
2023-02-13T01:34:40.023Z,1029.65
2023-02-13T01:35:39.981Z,1029.65
2023-02-13T01:36:39.981Z,1029.68
2023-02-13T01:37:39.965Z,1029.64
2023-02-13T01:38:39.952Z,1029.59
2023-02-13T01:39:39.952Z,1029.63
2023-02-13T01:40:39.932Z,1029.65
2023-02-13T01:41:39.886Z,1029.63
2023-02-13T01:42:46.422Z,1029.61
2023-02-13T01:43:39.906Z,1029.63
2023-02-13T01:44:39.910Z,1029.59
2023-02-13T01:45:39.913Z,1029.66
2023-02-13T01:46:39.979Z,1029.66
2023-02-13T01:47:39.848Z,1029.61
2023-02-13T01:48:39.863Z,1029.60
2023-02-13T01:49:39.822Z,1029.62
2023-02-13T01:50:39.813Z,1029.62
2023-02-13T01:51:39.823Z,1029.58
2023-02-13T01:52:39.804Z,1029.65
2023-02-13T01:53:39.786Z,1029.63
2023-02-13T01:54:39.770Z,1029.64
2023-02-13T01:55:39.761Z,1029.60
2023-02-13T01:56:39.753Z,1029.59
2023-02-13T01:57:39.716Z,1029.64
2023-02-13T01:58:39.756Z,1029.63
2023-02-13T01:59:39.747Z,1029.54
2023-02-13T02:00:39.697Z,1029.53
2023-02-13T02:01:39.838Z,1029.60
2023-02-13T02:02:46.232Z,1029.57
2023-02-13T02:03:39.649Z,1029.61
2023-02-13T02:04:39.668Z,1029.59
2023-02-13T02:05:39.642Z,1029.60
2023-02-13T02:06:39.620Z,1029.64
2023-02-13T02:07:39.632Z,1029.63
2023-02-13T02:08:39.588Z,1029.60
2023-02-13T02:09:39.634Z,1029.66
2023-02-13T02:10:39.625Z,1029.60
2023-02-13T02:11:39.590Z,1029.63
2023-02-13T02:12:39.585Z,1029.62
2023-02-13T02:13:39.531Z,1029.60
2023-02-13T02:14:39.549Z,1029.61
2023-02-13T02:15:39.537Z,1029.66
2023-02-13T02:16:39.554Z,1029.64
2023-02-13T02:17:39.481Z,1029.64
2023-02-13T02:18:39.493Z,1029.74
2023-02-13T02:19:39.474Z,1029.71
2023-02-13T02:20:40.146Z,1029.72
2023-02-13T02:21:39.458Z,1029.72
2023-02-13T02:22:39.460Z,1029.74
2023-02-13T02:23:39.453Z,1029.74
2023-02-13T02:24:39.410Z,1029.69
2023-02-13T02:25:39.416Z,1029.77
2023-02-13T02:26:39.395Z,1029.69
2023-02-13T02:27:39.410Z,1029.70
2023-02-13T02:28:39.558Z,1029.74
2023-02-13T02:29:39.375Z,1029.72
2023-02-13T02:30:39.400Z,1029.72
2023-02-13T02:31:39.370Z,1029.69
2023-02-13T02:32:39.324Z,1029.69
2023-02-13T02:33:39.311Z,1029.69
2023-02-13T02:34:39.344Z,1029.74
2023-02-13T02:35:39.296Z,1029.69
2023-02-13T02:36:39.294Z,1029.66
2023-02-13T02:37:39.290Z,1029.71
2023-02-13T02:38:39.276Z,1029.70
2023-02-13T02:39:39.256Z,1029.67
2023-02-13T02:40:39.247Z,1029.69
2023-02-13T02:41:39.252Z,1029.65
2023-02-13T02:42:39.235Z,1029.62
2023-02-13T02:43:39.246Z,1029.66
2023-02-13T02:44:39.182Z,1029.67
2023-02-13T02:45:39.194Z,1029.65
2023-02-13T02:46:39.223Z,1029.63
2023-02-13T02:47:39.209Z,1029.60
2023-02-13T02:48:39.155Z,1029.64
2023-02-13T02:49:39.144Z,1029.66
2023-02-13T02:50:39.126Z,1029.64
2023-02-13T02:51:39.165Z,1029.66
2023-02-13T02:52:39.113Z,1029.61
2023-02-13T02:53:39.086Z,1029.63
2023-02-13T02:54:39.092Z,1029.65
2023-02-13T02:55:39.075Z,1029.70
2023-02-13T02:56:39.075Z,1029.70
2023-02-13T02:57:39.041Z,1029.67
2023-02-13T02:58:39.058Z,1029.67
2023-02-13T02:59:39.023Z,1029.68
2023-02-13T03:00:39.066Z,1029.69
2023-02-13T03:01:39.030Z,1029.65
2023-02-13T03:02:45.547Z,1029.67
2023-02-13T03:03:39.015Z,1029.62
2023-02-13T03:04:38.967Z,1029.65
2023-02-13T03:05:38.976Z,1029.64
2023-02-13T03:06:38.948Z,1029.70
2023-02-13T03:07:38.961Z,1029.65
2023-02-13T03:08:38.910Z,1029.67
2023-02-13T03:09:38.942Z,1029.66
2023-02-13T03:10:38.913Z,1029.69
2023-02-13T03:11:38.910Z,1029.70
2023-02-13T03:12:38.865Z,1029.68
2023-02-13T03:13:38.864Z,1029.70
2023-02-13T03:14:38.876Z,1029.70
2023-02-13T03:15:39.061Z,1029.69
2023-02-13T03:16:38.966Z,1029.65
2023-02-13T03:17:38.844Z,1029.73
2023-02-13T03:18:38.859Z,1029.69
2023-02-13T03:19:38.811Z,1029.73
2023-02-13T03:20:38.793Z,1029.72
2023-02-13T03:21:38.797Z,1029.73
2023-02-13T03:22:38.756Z,1029.72
2023-02-13T03:23:38.776Z,1029.80
2023-02-13T03:24:38.761Z,1029.76
2023-02-13T03:25:38.953Z,1029.80
2023-02-13T03:26:38.732Z,1029.78
2023-02-13T03:27:38.724Z,1029.74
2023-02-13T03:28:38.743Z,1029.78
2023-02-13T03:29:39.482Z,1029.73
2023-02-13T03:30:38.771Z,1029.74
2023-02-13T03:31:38.696Z,1029.75
2023-02-13T03:32:38.660Z,1029.76
2023-02-13T03:33:38.629Z,1029.79
2023-02-13T03:34:38.656Z,1029.78
2023-02-13T03:35:38.652Z,1029.84
2023-02-13T03:36:38.641Z,1029.79
2023-02-13T03:37:38.628Z,1029.87
2023-02-13T03:38:38.611Z,1029.85
2023-02-13T03:39:38.566Z,1029.79
2023-02-13T03:40:38.569Z,1029.89
2023-02-13T03:41:38.588Z,1029.85
2023-02-13T03:42:38.558Z,1029.88
2023-02-13T03:43:38.533Z,1029.79
2023-02-13T03:44:38.518Z,1029.82
2023-02-13T03:45:38.551Z,1029.80
2023-02-13T03:46:38.490Z,1029.77
2023-02-13T03:47:38.500Z,1029.80
2023-02-13T03:48:38.494Z,1029.79
2023-02-13T03:49:38.523Z,1029.79
2023-02-13T03:50:38.439Z,1029.79
2023-02-13T03:51:38.449Z,1029.74
2023-02-13T03:52:45.493Z,1029.78
2023-02-13T03:53:38.450Z,1029.75
2023-02-13T03:54:38.420Z,1029.85
2023-02-13T03:55:38.411Z,1029.81
2023-02-13T03:56:38.377Z,1029.80
2023-02-13T03:57:38.374Z,1029.77
2023-02-13T03:58:38.380Z,1029.81
2023-02-13T03:59:38.353Z,1029.76
2023-02-13T04:00:38.345Z,1029.78
2023-02-13T04:01:38.331Z,1029.81
2023-02-13T04:02:38.321Z,1029.81
2023-02-13T04:03:38.317Z,1029.80
2023-02-13T04:04:38.302Z,1029.79
2023-02-13T04:05:38.274Z,1029.82
2023-02-13T04:06:38.291Z,1029.80
2023-02-13T04:07:38.282Z,1029.78
2023-02-13T04:08:38.241Z,1029.77
2023-02-13T04:09:38.230Z,1029.77
2023-02-13T04:10:38.236Z,1029.76
2023-02-13T04:11:38.233Z,1029.80
2023-02-13T04:12:38.195Z,1029.79
2023-02-13T04:13:38.207Z,1029.77
2023-02-13T04:14:38.197Z,1029.80
2023-02-13T04:15:38.182Z,1029.83
2023-02-13T04:16:38.177Z,1029.80
2023-02-13T04:17:38.148Z,1029.80
2023-02-13T04:18:38.143Z,1029.78
2023-02-13T04:19:38.145Z,1029.83
2023-02-13T04:20:38.188Z,1029.81
2023-02-13T04:21:38.094Z,1029.82
2023-02-13T04:22:44.610Z,1029.79
2023-02-13T04:23:38.096Z,1029.85
2023-02-13T04:24:38.077Z,1029.88
2023-02-13T04:25:38.082Z,1029.84
2023-02-13T04:26:38.052Z,1029.85
2023-02-13T04:27:38.052Z,1029.83
2023-02-13T04:28:38.099Z,1029.84
2023-02-13T04:29:38.032Z,1029.79
2023-02-13T04:30:38.110Z,1029.84
2023-02-13T04:31:38.143Z,1029.82
2023-02-13T04:32:37.986Z,1029.87
2023-02-13T04:33:37.961Z,1029.86
2023-02-13T04:34:37.963Z,1029.84
2023-02-13T04:35:37.948Z,1029.79
2023-02-13T04:36:37.933Z,1029.78
2023-02-13T04:37:37.917Z,1029.78
2023-02-13T04:38:37.920Z,1029.82
2023-02-13T04:39:37.897Z,1029.86
2023-02-13T04:40:37.900Z,1029.85
2023-02-13T04:41:37.874Z,1029.82
2023-02-13T04:42:37.876Z,1029.82
2023-02-13T04:43:37.874Z,1029.75
2023-02-13T04:44:37.855Z,1029.81
2023-02-13T04:45:37.919Z,1029.82
2023-02-13T04:46:37.875Z,1029.80
2023-02-13T04:47:37.823Z,1029.84
2023-02-13T04:48:38.878Z,1029.84
2023-02-13T04:49:37.808Z,1029.86
2023-02-13T04:50:37.775Z,1029.80
2023-02-13T04:51:37.856Z,1029.85
2023-02-13T04:52:37.770Z,1029.78
2023-02-13T04:53:37.753Z,1029.76
2023-02-13T04:54:37.762Z,1029.77
2023-02-13T04:55:37.743Z,1029.76
2023-02-13T04:56:37.728Z,1029.76
2023-02-13T04:57:37.686Z,1029.74
2023-02-13T04:58:37.703Z,1029.74
2023-02-13T04:59:37.664Z,1029.73
2023-02-13T05:00:37.678Z,1029.72
2023-02-13T05:01:37.726Z,1029.69
2023-02-13T05:02:44.186Z,1029.70
2023-02-13T05:03:37.643Z,1029.68
2023-02-13T05:04:37.683Z,1029.68
2023-02-13T05:05:37.685Z,1029.70
2023-02-13T05:06:37.602Z,1029.66
2023-02-13T05:07:37.610Z,1029.69
2023-02-13T05:08:37.621Z,1029.71
2023-02-13T05:09:37.952Z,1029.74
2023-02-13T05:10:37.581Z,1029.70
2023-02-13T05:11:37.559Z,1029.73
2023-02-13T05:12:37.549Z,1029.77
2023-02-13T05:13:37.548Z,1029.73
2023-02-13T05:14:37.537Z,1029.73
2023-02-13T05:15:37.538Z,1029.73
2023-02-13T05:16:37.503Z,1029.71
2023-02-13T05:17:37.498Z,1029.69
2023-02-13T05:18:37.490Z,1029.78
2023-02-13T05:19:37.487Z,1029.75
2023-02-13T05:20:37.474Z,1029.72
2023-02-13T05:21:37.427Z,1029.73
2023-02-13T05:22:44.016Z,1029.71
2023-02-13T05:23:37.441Z,1029.71
2023-02-13T05:24:37.417Z,1029.77
2023-02-13T05:25:37.415Z,1029.74
2023-02-13T05:26:37.413Z,1029.79
2023-02-13T05:27:37.376Z,1029.77
2023-02-13T05:28:37.391Z,1029.75
2023-02-13T05:29:37.355Z,1029.75
2023-02-13T05:30:37.381Z,1029.86
2023-02-13T05:31:37.483Z,1029.81
2023-02-13T05:32:37.311Z,1029.74
2023-02-13T05:33:37.335Z,1029.82
2023-02-13T05:34:37.297Z,1029.84
2023-02-13T05:35:37.293Z,1029.87
2023-02-13T05:36:37.319Z,1029.86
2023-02-13T05:37:37.280Z,1029.83
2023-02-13T05:38:37.244Z,1029.81
2023-02-13T05:39:37.238Z,1029.82
2023-02-13T05:40:37.232Z,1029.79
2023-02-13T05:41:37.233Z,1029.82
2023-02-13T05:42:37.242Z,1029.82
2023-02-13T05:43:37.200Z,1029.87
2023-02-13T05:44:37.440Z,1029.89
2023-02-13T05:45:37.164Z,1029.87
2023-02-13T05:46:38.971Z,1029.82
2023-02-13T05:47:37.150Z,1029.83
2023-02-13T05:48:37.178Z,1029.84
2023-02-13T05:49:37.166Z,1029.89
2023-02-13T05:50:37.132Z,1029.88
2023-02-13T05:51:37.122Z,1029.87
2023-02-13T05:52:37.123Z,1029.85
2023-02-13T05:53:37.159Z,1029.86
2023-02-13T05:54:37.066Z,1029.88
2023-02-13T05:55:37.075Z,1029.89
2023-02-13T05:56:37.074Z,1029.87
2023-02-13T05:57:37.697Z,1029.90
2023-02-13T05:58:37.082Z,1029.91
2023-02-13T05:59:37.030Z,1029.92
2023-02-13T06:00:37.012Z,1029.91
2023-02-13T06:01:36.999Z,1029.99
2023-02-13T06:02:44.535Z,1029.94
2023-02-13T06:03:37.021Z,1029.94
2023-02-13T06:04:36.978Z,1029.94
2023-02-13T06:05:36.970Z,1029.96
2023-02-13T06:06:36.950Z,1029.97
2023-02-13T06:07:36.960Z,1029.95
2023-02-13T06:08:37.170Z,1029.98
2023-02-13T06:09:36.906Z,1029.98
2023-02-13T06:10:36.917Z,1029.97
2023-02-13T06:11:36.898Z,1029.98
2023-02-13T06:12:36.898Z,1029.94
2023-02-13T06:13:36.894Z,1029.92
2023-02-13T06:14:36.886Z,1029.96
2023-02-13T06:15:36.872Z,1029.95
2023-02-13T06:16:36.832Z,1029.95
2023-02-13T06:17:36.832Z,1029.94
2023-02-13T06:18:36.822Z,1029.95
2023-02-13T06:19:36.809Z,1029.95
2023-02-13T06:20:36.796Z,1029.96
2023-02-13T06:21:36.769Z,1029.96
2023-02-13T06:22:43.286Z,1029.95
2023-02-13T06:23:36.801Z,1030.01
2023-02-13T06:24:36.808Z,1030.02
2023-02-13T06:25:36.766Z,1030.01
2023-02-13T06:26:36.749Z,1030.05
2023-02-13T06:27:36.709Z,1030.04
2023-02-13T06:28:36.792Z,1030.05
2023-02-13T06:29:36.719Z,1030.04
2023-02-13T06:30:36.758Z,1030.12
2023-02-13T06:31:36.817Z,1030.12
2023-02-13T06:32:36.654Z,1030.16
2023-02-13T06:33:43.202Z,1030.13
2023-02-13T06:34:36.645Z,1030.13
2023-02-13T06:35:36.661Z,1030.15
2023-02-13T06:36:36.600Z,1030.16
2023-02-13T06:37:36.600Z,1030.13
2023-02-13T06:38:36.580Z,1030.18
2023-02-13T06:39:36.592Z,1030.15
2023-02-13T06:40:36.568Z,1030.13
2023-02-13T06:41:36.571Z,1030.09
2023-02-13T06:42:43.099Z,1030.12
2023-02-13T06:43:38.102Z,1030.12
2023-02-13T06:44:36.511Z,1030.12
2023-02-13T06:45:36.527Z,1030.06
2023-02-13T06:46:36.576Z,1030.06
2023-02-13T06:47:36.516Z,1030.08
2023-02-13T06:48:36.493Z,1030.10
2023-02-13T06:49:36.671Z,1030.09
2023-02-13T06:50:36.476Z,1030.05
2023-02-13T06:51:36.518Z,1030.07
2023-02-13T06:52:36.448Z,1030.10
2023-02-13T06:53:36.623Z,1030.10
2023-02-13T06:54:46.824Z,1030.08
2023-02-13T06:55:36.476Z,1030.07
2023-02-13T06:56:36.430Z,1030.06
2023-02-13T06:57:36.401Z,1030.10
2023-02-13T06:58:36.413Z,1030.07
2023-02-13T06:59:36.375Z,1030.07
2023-02-13T07:00:36.410Z,1030.06
2023-02-13T07:01:36.353Z,1030.07
2023-02-13T07:02:43.007Z,1030.02
2023-02-13T07:03:36.338Z,1030.01
2023-02-13T07:04:36.293Z,1030.03
2023-02-13T07:05:36.728Z,1030.06
2023-02-13T07:06:36.269Z,1030.05
2023-02-13T07:07:36.294Z,1030.03
2023-02-13T07:08:36.274Z,1030.06
2023-02-13T07:09:36.244Z,1029.99
2023-02-13T07:10:36.242Z,1030.07
2023-02-13T07:11:36.223Z,1030.02
2023-02-13T07:12:36.213Z,1029.99
2023-02-13T07:13:36.213Z,1030.05
2023-02-13T07:14:36.203Z,1030.03
2023-02-13T07:15:36.976Z,1030.04
2023-02-13T07:16:36.205Z,1030.00
2023-02-13T07:17:36.183Z,1030.05
2023-02-13T07:18:38.277Z,1030.02
2023-02-13T07:19:36.171Z,1030.03
2023-02-13T07:20:36.135Z,1029.97
2023-02-13T07:21:36.149Z,1029.99
2023-02-13T07:22:36.121Z,1030.00
2023-02-13T07:23:36.115Z,1029.96
2023-02-13T07:24:36.113Z,1030.01
2023-02-13T07:25:36.125Z,1029.98
2023-02-13T07:26:36.160Z,1029.99
2023-02-13T07:27:36.946Z,1030.01
2023-02-13T07:28:36.133Z,1030.03
2023-02-13T07:29:36.033Z,1029.98
2023-02-13T07:30:36.071Z,1030.03
2023-02-13T07:31:36.088Z,1030.03
2023-02-13T07:32:36.941Z,1030.00
2023-02-13T07:33:36.017Z,1030.00
2023-02-13T07:34:35.979Z,1030.03
2023-02-13T07:35:36.945Z,1030.04
2023-02-13T07:36:36.030Z,1030.03
2023-02-13T07:37:35.954Z,1030.01
2023-02-13T07:38:35.932Z,1030.05
2023-02-13T07:39:35.925Z,1030.02
2023-02-13T07:40:36.117Z,1029.98
2023-02-13T07:41:36.116Z,1029.96
2023-02-13T07:42:43.697Z,1029.96
2023-02-13T07:43:36.104Z,1029.97
2023-02-13T07:44:35.884Z,1029.95
2023-02-13T07:45:35.864Z,1029.98
2023-02-13T07:46:35.892Z,1029.96
2023-02-13T07:47:35.859Z,1030.00
2023-02-13T07:48:35.821Z,1029.92
2023-02-13T07:49:35.821Z,1029.97
2023-02-13T07:50:35.827Z,1029.98
2023-02-13T07:51:35.822Z,1029.93
2023-02-13T07:52:35.782Z,1029.95
2023-02-13T07:53:36.037Z,1029.98
2023-02-13T07:54:35.776Z,1029.99
2023-02-13T07:55:35.791Z,1030.02
2023-02-13T07:56:35.748Z,1029.98
2023-02-13T07:57:35.778Z,1029.99
2023-02-13T07:58:35.720Z,1029.99
2023-02-13T07:59:35.742Z,1029.96
2023-02-13T08:00:35.700Z,1030.03
2023-02-13T08:01:35.710Z,1030.01
2023-02-13T08:02:35.676Z,1030.02
2023-02-13T08:03:36.005Z,1030.06
2023-02-13T08:04:35.644Z,1030.04
2023-02-13T08:05:35.654Z,1030.03
2023-02-13T08:06:35.660Z,1030.06
2023-02-13T08:07:35.622Z,1030.03
2023-02-13T08:08:35.738Z,1030.02
2023-02-13T08:09:35.614Z,1030.06
2023-02-13T08:10:35.582Z,1030.07
2023-02-13T08:11:35.615Z,1030.07
2023-02-13T08:12:35.581Z,1030.04
2023-02-13T08:13:35.664Z,1030.03
2023-02-13T08:14:35.601Z,1030.05
2023-02-13T08:15:35.576Z,1030.08
2023-02-13T08:16:35.577Z,1030.07
2023-02-13T08:17:35.496Z,1030.00
2023-02-13T08:18:35.494Z,1030.03
2023-02-13T08:19:35.500Z,1030.01
2023-02-13T08:20:35.521Z,1029.99
2023-02-13T08:21:35.687Z,1030.04
2023-02-13T08:22:35.476Z,1029.97
2023-02-13T08:23:35.545Z,1030.02
2023-02-13T08:24:35.424Z,1030.01
2023-02-13T08:25:35.438Z,1029.99
2023-02-13T08:26:35.403Z,1030.04
2023-02-13T08:27:35.423Z,1030.04
2023-02-13T08:28:35.576Z,1030.00
2023-02-13T08:29:35.372Z,1030.01
2023-02-13T08:30:35.375Z,1030.05
2023-02-13T08:31:35.457Z,1030.05
2023-02-13T08:32:53.961Z,1030.05
2023-02-13T08:33:35.350Z,1030.10
2023-02-13T08:34:35.361Z,1030.02
2023-02-13T08:35:35.329Z,1030.07
2023-02-13T08:36:35.294Z,1030.03
2023-02-13T08:37:35.281Z,1030.01
2023-02-13T08:38:35.288Z,1030.00
2023-02-13T08:39:35.275Z,1030.06
2023-02-13T08:40:35.259Z,1030.04
2023-02-13T08:41:35.256Z,1030.08
2023-02-13T08:42:35.271Z,1030.10
2023-02-13T08:43:35.238Z,1030.10
2023-02-13T08:44:35.198Z,1030.07
2023-02-13T08:45:35.293Z,1030.07
2023-02-13T08:46:35.356Z,1030.03
2023-02-13T08:47:35.159Z,1030.09
2023-02-13T08:48:35.211Z,1030.09
2023-02-13T08:49:35.139Z,1030.06
2023-02-13T08:50:37.145Z,1030.03
2023-02-13T08:51:35.115Z,1030.01
2023-02-13T08:52:35.125Z,1030.05
2023-02-13T08:53:35.128Z,1030.02
2023-02-13T08:54:36.106Z,1030.02
2023-02-13T08:55:35.095Z,1030.02
2023-02-13T08:56:35.092Z,1030.02
2023-02-13T08:57:35.277Z,1030.03
2023-02-13T08:58:35.076Z,1030.04
2023-02-13T08:59:55.715Z,1030.04
2023-02-13T09:00:43.227Z,1030.02
2023-02-13T09:01:37.601Z,1030.03
2023-02-13T09:02:35.015Z,1030.02
2023-02-13T09:03:35.000Z,1030.05
2023-02-13T09:04:34.990Z,1029.95
2023-02-13T09:05:35.004Z,1030.03
2023-02-13T09:06:35.910Z,1029.95
2023-02-13T09:07:34.958Z,1029.98
2023-02-13T09:08:34.939Z,1029.99
2023-02-13T09:09:35.541Z,1029.97
2023-02-13T09:10:34.933Z,1030.09
2023-02-13T09:11:34.939Z,1030.08
2023-02-13T09:12:34.898Z,1030.02
2023-02-13T09:13:38.950Z,1030.03
2023-02-13T09:14:36.272Z,1030.11
2023-02-13T09:15:34.858Z,1030.02
2023-02-13T09:16:34.910Z,1030.03
2023-02-13T09:17:34.864Z,1030.04
2023-02-13T09:18:35.528Z,1030.02
2023-02-13T09:19:34.822Z,1030.00
2023-02-13T09:20:36.251Z,1029.98
2023-02-13T09:22:20.509Z,1029.98
2023-02-13T09:22:35.500Z,1029.97
2023-02-13T09:23:36.372Z,1030.01
2023-02-13T09:24:34.784Z,1029.99
2023-02-13T09:25:37.883Z,1030.01
2023-02-13T09:26:37.504Z,1029.99
2023-02-13T09:27:35.521Z,1029.99
2023-02-13T09:28:35.354Z,1029.97
2023-02-13T09:29:34.761Z,1029.94
2023-02-13T09:30:34.772Z,1029.97
2023-02-13T09:31:34.984Z,1029.88
2023-02-13T09:32:41.708Z,1029.90
2023-02-13T09:33:34.686Z,1029.92
2023-02-13T09:34:35.569Z,1029.92
2023-02-13T09:35:34.910Z,1029.92
2023-02-13T09:36:34.641Z,1029.86
2023-02-13T09:37:36.070Z,1029.89
2023-02-13T09:38:35.541Z,1029.84
2023-02-13T09:39:34.600Z,1029.87
2023-02-13T09:40:34.608Z,1029.90
2023-02-13T09:41:34.606Z,1029.89
2023-02-13T09:42:34.585Z,1029.92
2023-02-13T09:43:34.559Z,1029.95
2023-02-13T09:44:34.590Z,1029.91
2023-02-13T09:45:34.546Z,1029.92
2023-02-13T09:46:34.579Z,1029.92
2023-02-13T09:47:34.537Z,1029.94
2023-02-13T09:48:34.510Z,1029.88
2023-02-13T09:49:34.525Z,1029.92
2023-02-13T09:50:34.710Z,1029.84
2023-02-13T09:51:38.638Z,1029.83
2023-02-13T09:52:34.472Z,1029.83
2023-02-13T09:53:34.692Z,1029.81
2023-02-13T09:54:35.337Z,1029.84
2023-02-13T09:55:34.426Z,1029.81
2023-02-13T09:56:34.424Z,1029.82
2023-02-13T09:57:34.424Z,1029.78
2023-02-13T09:58:34.601Z,1029.69
2023-02-13T09:59:34.375Z,1029.78
2023-02-13T10:00:34.395Z,1029.78
2023-02-13T10:01:34.528Z,1029.70
2023-02-13T10:02:41.036Z,1029.74
2023-02-13T10:03:34.778Z,1029.75
2023-02-13T10:04:38.251Z,1029.71
2023-02-13T10:05:35.221Z,1029.72
2023-02-13T10:06:34.575Z,1029.72
2023-02-13T10:07:34.823Z,1029.71
2023-02-13T10:08:34.561Z,1029.68
2023-02-13T10:09:34.256Z,1029.66
2023-02-13T10:10:34.274Z,1029.68
2023-02-13T10:11:34.238Z,1029.66
2023-02-13T10:12:34.426Z,1029.69
2023-02-13T10:13:34.211Z,1029.64
2023-02-13T10:14:34.208Z,1029.58
2023-02-13T10:15:37.145Z,1029.60
2023-02-13T10:16:35.707Z,1029.57
2023-02-13T10:17:34.185Z,1029.57
2023-02-13T10:18:37.835Z,1029.55
2023-02-13T10:19:34.172Z,1029.57
2023-02-13T10:20:34.171Z,1029.54
2023-02-13T10:21:34.164Z,1029.50
2023-02-13T10:22:34.143Z,1029.52
2023-02-13T10:23:34.153Z,1029.56
2023-02-13T10:24:34.178Z,1029.53
2023-02-13T10:25:34.105Z,1029.52
2023-02-13T10:26:34.132Z,1029.47
2023-02-13T10:27:34.507Z,1029.49
2023-02-13T10:28:34.345Z,1029.52
2023-02-13T10:29:34.071Z,1029.54
2023-02-13T10:30:34.238Z,1029.46
2023-02-13T10:31:35.510Z,1029.43
2023-02-13T10:32:34.112Z,1029.43
2023-02-13T10:33:34.031Z,1029.44
2023-02-13T10:34:33.989Z,1029.45
2023-02-13T10:35:33.979Z,1029.43
2023-02-13T10:36:33.953Z,1029.40
2023-02-13T10:37:33.952Z,1029.46
2023-02-13T10:38:33.953Z,1029.39
2023-02-13T10:39:33.956Z,1029.40
2023-02-13T10:40:33.920Z,1029.43
2023-02-13T10:41:33.911Z,1029.39
2023-02-13T10:42:36.438Z,1029.41
2023-02-13T10:43:33.897Z,1029.40
2023-02-13T10:44:33.897Z,1029.35
2023-02-13T10:45:33.863Z,1029.35
2023-02-13T10:46:33.965Z,1029.32
2023-02-13T10:47:33.859Z,1029.29
2023-02-13T10:48:33.820Z,1029.30
2023-02-13T10:49:33.836Z,1029.27
2023-02-13T10:50:33.819Z,1029.24
2023-02-13T10:51:33.798Z,1029.29
2023-02-13T10:52:33.812Z,1029.30
2023-02-13T10:53:33.799Z,1029.30
2023-02-13T10:54:33.759Z,1029.26
2023-02-13T10:55:33.756Z,1029.29
2023-02-13T10:56:33.755Z,1029.26
2023-02-13T10:57:33.749Z,1029.26
2023-02-13T10:58:33.719Z,1029.28
2023-02-13T10:59:33.748Z,1029.23
2023-02-13T11:00:33.710Z,1029.26
2023-02-13T11:01:33.768Z,1029.17
2023-02-13T11:02:33.898Z,1029.14
2023-02-13T11:03:33.764Z,1029.11
2023-02-13T11:04:33.772Z,1029.09
2023-02-13T11:05:33.668Z,1029.04
2023-02-13T11:06:33.648Z,1029.04
2023-02-13T11:07:33.844Z,1029.02
2023-02-13T11:08:33.633Z,1028.99
2023-02-13T11:09:33.611Z,1028.92
2023-02-13T11:10:33.857Z,1028.95
2023-02-13T11:11:33.622Z,1028.94
2023-02-13T11:12:40.122Z,1028.86
2023-02-13T11:13:33.576Z,1028.88
2023-02-13T11:14:33.542Z,1028.85
2023-02-13T11:15:48.158Z,1028.81
2023-02-13T11:16:33.666Z,1028.81
2023-02-13T11:17:33.521Z,1028.79
2023-02-13T11:18:34.560Z,1028.80
2023-02-13T11:19:33.501Z,1028.79
2023-02-13T11:20:33.496Z,1028.77
2023-02-13T11:21:33.465Z,1028.80
2023-02-13T11:22:33.493Z,1028.78
2023-02-13T11:23:33.436Z,1028.76
2023-02-13T11:24:33.450Z,1028.73
2023-02-13T11:25:33.637Z,1028.74
2023-02-13T11:26:33.428Z,1028.73
2023-02-13T11:27:33.402Z,1028.69
2023-02-13T11:28:33.425Z,1028.75
2023-02-13T11:29:33.940Z,1028.65
2023-02-13T11:30:34.752Z,1028.63
2023-02-13T11:31:34.073Z,1028.61
2023-02-13T11:32:34.117Z,1028.60
2023-02-13T11:33:33.529Z,1028.61
2023-02-13T11:34:34.207Z,1028.53
2023-02-13T11:35:33.328Z,1028.52
2023-02-13T11:36:33.881Z,1028.52
2023-02-13T11:37:34.804Z,1028.47
2023-02-13T11:38:33.293Z,1028.46
2023-02-13T11:39:33.379Z,1028.48
2023-02-13T11:40:33.289Z,1028.42
2023-02-13T11:41:33.293Z,1028.42
2023-02-13T11:42:33.242Z,1028.39
2023-02-13T11:43:33.215Z,1028.35
2023-02-13T11:44:33.224Z,1028.41
2023-02-13T11:45:33.223Z,1028.36
2023-02-13T11:46:33.460Z,1028.34
2023-02-13T11:47:33.175Z,1028.39
2023-02-13T11:48:33.198Z,1028.36
2023-02-13T11:49:33.152Z,1028.36
2023-02-13T11:50:33.388Z,1028.34
2023-02-13T11:51:33.134Z,1028.35
2023-02-13T11:52:39.725Z,1028.30
2023-02-13T11:53:33.127Z,1028.28
2023-02-13T11:54:33.149Z,1028.29
2023-02-13T11:55:33.127Z,1028.22
2023-02-13T11:56:33.662Z,1028.18
2023-02-13T11:57:33.108Z,1028.21
2023-02-13T11:58:33.134Z,1028.19
2023-02-13T11:59:33.108Z,1028.18
2023-02-13T12:00:33.058Z,1028.17
2023-02-13T12:01:33.054Z,1028.17
2023-02-13T12:02:33.102Z,1028.16
2023-02-13T12:03:33.488Z,1028.07
2023-02-13T12:04:33.853Z,1028.13
2023-02-13T12:05:33.082Z,1028.07